createdAt,value
2018-03-15T00:01:59.303Z,99549.52
2018-03-15T00:04:32.244Z,99549.69
2018-03-15T00:06:59.635Z,99542.96
2018-03-15T00:09:27.018Z,99539.42
2018-03-15T00:14:21.107Z,99546.63
2018-03-15T00:16:48.508Z,99542.09
2018-03-15T00:19:15.903Z,99537.52
2018-03-15T00:21:43.325Z,99532.63
2018-03-15T00:24:10.769Z,99534.23
2018-03-15T00:26:38.172Z,99533.59
2018-03-15T00:29:05.591Z,99531.13
2018-03-15T00:31:33.000Z,99531.20
2018-03-15T00:34:00.410Z,99528.06
2018-03-15T00:36:27.795Z,99527.66
2018-03-15T00:38:55.202Z,99532.08
2018-03-15T00:41:22.591Z,99529.18
2018-03-15T00:43:49.991Z,99530.23
2018-03-15T00:46:17.403Z,99530.41
2018-03-15T00:48:44.815Z,99529.91
2018-03-15T00:51:12.228Z,99524.95
2018-03-15T00:53:39.841Z,99517.75
2018-03-15T00:56:07.235Z,99515.34
2018-03-15T00:58:34.628Z,99518.05
2018-03-15T01:01:02.037Z,99507.48
2018-03-15T01:03:29.423Z,99511.03
2018-03-15T01:05:56.831Z,99503.75
2018-03-15T01:08:24.224Z,99508.72
2018-03-15T01:10:51.625Z,99496.30
2018-03-15T01:13:19.019Z,99489.09
2018-03-15T01:15:46.418Z,99497.34
2018-03-15T01:18:13.815Z,99497.65
2018-03-15T01:20:41.211Z,99493.75
2018-03-15T01:23:08.615Z,99482.28
2018-03-15T01:25:36.004Z,99484.30
2018-03-15T01:28:03.390Z,99475.50
2018-03-15T01:30:30.798Z,99471.41
2018-03-15T01:32:58.191Z,99464.60
2018-03-15T01:35:25.583Z,99453.97
2018-03-15T01:37:52.986Z,99449.24
2018-03-15T01:40:20.382Z,99448.44
2018-03-15T01:42:48.071Z,99443.95
2018-03-15T01:45:15.760Z,99450.45
2018-03-15T01:47:43.155Z,99443.00
2018-03-15T01:50:10.560Z,99441.66
2018-03-15T01:52:37.955Z,99434.84
2018-03-15T01:55:05.363Z,99438.75
2018-03-15T01:57:32.828Z,99426.12
2018-03-15T02:00:00.257Z,99421.08
2018-03-15T02:02:27.927Z,99414.03
2018-03-15T02:04:55.318Z,99400.98
2018-03-15T02:07:22.710Z,99406.34
2018-03-15T02:09:50.111Z,99395.45
2018-03-15T02:12:17.498Z,99395.18
2018-03-15T02:14:44.907Z,99393.36
2018-03-15T02:17:12.296Z,99397.75
2018-03-15T02:19:39.687Z,99397.19
2018-03-15T02:22:07.091Z,99399.20
2018-03-15T02:24:34.496Z,99410.15
2018-03-15T02:27:01.889Z,99409.69
2018-03-15T02:29:29.291Z,99409.20
2018-03-15T02:31:56.675Z,99413.68
2018-03-15T02:34:24.080Z,99411.12
2018-03-15T02:36:51.470Z,99408.55
2018-03-15T02:39:18.860Z,99406.94
2018-03-15T02:41:46.262Z,99403.29
2018-03-15T02:44:13.663Z,99404.16
2018-03-15T02:46:41.064Z,99401.09
2018-03-15T02:49:08.463Z,99392.38
2018-03-15T02:51:35.863Z,99383.28
2018-03-15T02:54:03.258Z,99383.90
2018-03-15T02:56:30.660Z,99382.22
2018-03-15T02:58:58.047Z,99383.34
2018-03-15T03:01:25.453Z,99387.02
2018-03-15T03:03:52.836Z,99388.69
2018-03-15T03:06:20.239Z,99390.52
2018-03-15T03:08:47.642Z,99388.23
2018-03-15T03:11:15.072Z,99386.22
2018-03-15T03:13:42.471Z,99387.02
2018-03-15T03:16:09.987Z,99385.59
2018-03-15T03:18:37.371Z,99380.21
2018-03-15T03:21:04.775Z,99387.61
2018-03-15T03:23:32.163Z,99385.86
2018-03-15T03:25:59.569Z,99387.84
2018-03-15T03:28:26.970Z,99386.17
2018-03-15T03:30:54.397Z,99394.59
2018-03-15T03:33:21.775Z,99394.50
2018-03-15T03:35:49.328Z,99392.58
2018-03-15T03:38:16.744Z,99396.84
2018-03-15T03:40:44.143Z,99397.77
2018-03-15T03:43:11.563Z,99385.28
2018-03-15T03:45:38.960Z,99382.34
2018-03-15T03:48:06.385Z,99386.34
2018-03-15T03:50:33.786Z,99393.36
2018-03-15T03:53:01.178Z,99394.50
2018-03-15T03:55:28.684Z,99391.59
2018-03-15T03:57:56.087Z,99394.50
2018-03-15T04:00:23.481Z,99392.34
2018-03-15T04:02:51.083Z,99385.13
2018-03-15T04:05:18.473Z,99379.78
2018-03-15T04:07:45.871Z,99383.05
2018-03-15T04:10:13.259Z,99384.97
2018-03-15T04:12:40.664Z,99385.78
2018-03-15T04:15:08.068Z,99383.12
2018-03-15T04:17:35.455Z,99387.27
2018-03-15T04:20:02.859Z,99385.01
2018-03-15T04:22:30.243Z,99376.84
2018-03-15T04:24:57.631Z,99374.92
2018-03-15T04:27:25.045Z,99373.97
2018-03-15T04:29:52.448Z,99373.88
2018-03-15T04:32:19.838Z,99377.90
2018-03-15T04:34:47.240Z,99370.53
2018-03-15T04:37:14.634Z,99376.37
2018-03-15T04:39:42.037Z,99373.81
2018-03-15T04:42:09.417Z,99368.22
2018-03-15T04:44:36.822Z,99360.98
2018-03-15T04:47:04.204Z,99363.36
2018-03-15T04:49:31.611Z,99348.70
2018-03-15T04:51:59.007Z,99347.92
2018-03-15T04:54:26.403Z,99332.86
2018-03-15T04:56:53.798Z,99347.98
2018-03-15T04:59:21.199Z,99343.99
2018-03-15T05:01:48.595Z,99333.91
2018-03-15T05:04:16.003Z,99326.74
2018-03-15T05:06:43.435Z,99327.20
2018-03-15T05:09:10.876Z,99328.35
2018-03-15T05:11:38.275Z,99329.87
2018-03-15T05:14:05.700Z,99317.66
2018-03-15T05:16:33.338Z,99315.92
2018-03-15T05:19:00.748Z,99316.08
2018-03-15T05:21:28.135Z,99317.59
2018-03-15T05:23:55.555Z,99308.50
2018-03-15T05:26:22.954Z,99315.70
2018-03-15T05:28:50.349Z,99317.06
2018-03-15T05:31:17.747Z,99314.13
2018-03-15T05:33:45.142Z,99303.55
2018-03-15T05:36:12.659Z,99310.58
2018-03-15T05:38:39.939Z,99307.05
2018-03-15T05:41:07.328Z,99306.00
2018-03-15T05:43:34.723Z,99301.92
2018-03-15T05:46:02.106Z,99289.52
2018-03-15T05:48:29.507Z,99285.71
2018-03-15T05:50:56.898Z,99289.89
2018-03-15T05:53:24.298Z,99287.66
2018-03-15T05:55:51.682Z,99279.67
2018-03-15T05:58:19.092Z,99280.48
2018-03-15T06:00:46.500Z,99278.62
2018-03-15T06:03:13.883Z,99287.14
2018-03-15T06:05:41.275Z,99271.97
2018-03-15T06:08:08.676Z,99268.52
2018-03-15T06:10:36.067Z,99256.61
2018-03-15T06:13:03.468Z,99252.63
2018-03-15T06:15:30.853Z,99238.87
2018-03-15T06:17:58.260Z,99252.86
2018-03-15T06:20:25.642Z,99247.34
2018-03-15T06:22:53.036Z,99247.98
2018-03-15T06:25:20.447Z,99238.55
2018-03-15T06:27:47.833Z,99239.68
2018-03-15T06:30:15.226Z,99246.03
2018-03-15T06:32:42.804Z,99237.83
2018-03-15T06:35:11.120Z,99235.09
2018-03-15T06:37:38.501Z,99242.37
2018-03-15T06:40:05.911Z,99238.07
2018-03-15T06:42:33.308Z,99248.30
2018-03-15T06:45:00.729Z,99237.59
2018-03-15T06:47:28.103Z,99231.44
2018-03-15T06:49:55.507Z,99225.55
2018-03-15T06:52:22.901Z,99220.64
2018-03-15T06:54:50.305Z,99227.05
2018-03-15T06:57:17.711Z,99231.33
2018-03-15T06:59:45.114Z,99234.56
2018-03-15T07:02:13.378Z,99234.52
2018-03-15T07:04:40.795Z,99228.78
2018-03-15T07:07:08.207Z,99237.12
2018-03-15T07:09:35.615Z,99233.64
2018-03-15T07:12:03.029Z,99233.64
2018-03-15T07:14:30.442Z,99228.20
2018-03-15T07:16:57.983Z,99229.88
2018-03-15T07:19:25.387Z,99227.68
2018-03-15T07:21:52.775Z,99234.09
2018-03-15T07:24:20.396Z,99227.73
2018-03-15T07:26:47.828Z,99224.72
2018-03-15T07:29:15.248Z,99217.84
2018-03-15T07:31:42.676Z,99221.92
2018-03-15T07:34:10.112Z,99210.12
2018-03-15T07:36:37.498Z,99198.63
2018-03-15T07:39:04.885Z,99192.81
2018-03-15T07:41:32.298Z,99198.63
2018-03-15T07:43:59.707Z,99191.03
2018-03-15T07:46:27.107Z,99178.89
2018-03-15T07:48:54.516Z,99175.45
2018-03-15T07:51:21.911Z,99179.77
2018-03-15T07:53:49.464Z,99176.18
2018-03-15T07:56:16.864Z,99179.16
2018-03-15T07:58:44.247Z,99173.02
2018-03-15T08:01:11.647Z,99172.34
2018-03-15T08:03:39.049Z,99165.42
2018-03-15T08:06:06.452Z,99169.02
2018-03-15T08:08:33.847Z,99172.33
2018-03-15T08:11:01.248Z,99164.48
2018-03-15T08:13:28.647Z,99162.06
2018-03-15T08:15:56.051Z,99150.12
2018-03-15T08:18:23.443Z,99149.27
2018-03-15T08:20:50.832Z,99150.41
2018-03-15T08:23:18.240Z,99150.16
2018-03-15T08:25:45.631Z,99136.97
2018-03-15T08:28:13.028Z,99143.98
2018-03-15T08:30:40.423Z,99146.98
2018-03-15T08:33:07.829Z,99148.37
2018-03-15T08:35:35.219Z,99140.45
2018-03-15T08:38:02.886Z,99141.27
2018-03-15T08:40:30.282Z,99140.50
2018-03-15T08:42:57.667Z,99135.38
2018-03-15T08:45:25.092Z,99148.05
2018-03-15T08:47:52.483Z,99145.72
2018-03-15T08:50:19.874Z,99142.58
2018-03-15T08:52:47.271Z,99135.69
2018-03-15T08:55:14.674Z,99146.82
2018-03-15T08:57:42.084Z,99146.75
2018-03-15T09:00:09.475Z,99153.09
2018-03-15T09:02:36.866Z,99148.52
2018-03-15T09:05:04.263Z,99141.52
2018-03-15T09:07:31.750Z,99147.12
2018-03-15T09:09:59.059Z,99153.48
2018-03-15T09:12:26.462Z,99152.33
2018-03-15T09:14:53.871Z,99145.85
2018-03-15T09:17:21.275Z,99150.22
2018-03-15T09:19:48.681Z,99143.80
2018-03-15T09:22:16.072Z,99147.47
2018-03-15T09:24:43.471Z,99146.16
2018-03-15T09:27:10.872Z,99142.70
2018-03-15T09:29:38.276Z,99143.86
2018-03-15T09:32:05.713Z,99138.45
2018-03-15T09:34:33.567Z,99128.20
2018-03-15T09:37:00.887Z,99124.47
2018-03-15T09:39:28.275Z,99120.73
2018-03-15T09:41:55.697Z,99127.61
2018-03-15T09:44:23.080Z,99114.35
2018-03-15T09:46:50.487Z,99121.08
2018-03-15T09:49:17.879Z,99122.91
2018-03-15T09:51:45.295Z,99123.97
2018-03-15T09:54:12.692Z,99112.70
2018-03-15T09:56:40.436Z,99117.67
2018-03-15T09:59:07.865Z,99109.72
2018-03-15T10:01:35.244Z,99095.59
2018-03-15T10:04:02.709Z,99102.39
2018-03-15T10:06:30.090Z,99103.72
2018-03-15T10:08:57.504Z,99098.73
2018-03-15T10:11:24.890Z,99088.47
2018-03-15T10:13:52.295Z,99071.94
2018-03-15T10:16:19.755Z,99076.77
2018-03-15T10:18:47.215Z,99068.03
2018-03-15T10:21:14.614Z,99064.02
2018-03-15T10:23:42.046Z,99057.94
2018-03-15T10:26:09.677Z,99055.37
2018-03-15T10:28:37.123Z,99054.19
2018-03-15T10:31:04.524Z,99052.01
2018-03-15T10:33:37.763Z,99065.11
2018-03-15T10:36:05.164Z,99062.61
2018-03-15T10:38:32.554Z,99046.83
2018-03-15T10:40:59.945Z,99051.64
2018-03-15T10:43:27.356Z,99046.10
2018-03-15T10:45:54.743Z,99055.94
2018-03-15T10:48:22.252Z,99049.14
2018-03-15T10:50:49.641Z,99039.63
2018-03-15T10:53:17.038Z,99037.41
2018-03-15T10:55:44.462Z,99040.52
2018-03-15T10:58:12.167Z,99034.52
2018-03-15T11:03:50.527Z,99022.50
2018-03-15T11:06:23.618Z,99015.00
2018-03-15T11:08:56.691Z,99017.30
2018-03-15T11:11:24.085Z,99015.49
2018-03-15T11:13:51.483Z,99005.88
2018-03-15T11:16:18.913Z,99024.89
2018-03-15T11:18:46.307Z,99014.12
2018-03-15T11:21:13.701Z,99006.18
2018-03-15T11:23:41.114Z,98992.50
2018-03-15T11:26:08.499Z,98998.23
2018-03-15T11:28:35.904Z,99006.92
2018-03-15T11:31:03.295Z,98993.81
2018-03-15T11:33:30.702Z,98985.30
2018-03-15T11:35:58.095Z,98966.45
2018-03-15T11:38:25.503Z,98974.06
2018-03-15T11:40:52.912Z,98966.80
2018-03-15T11:43:20.320Z,98956.31
2018-03-15T11:45:47.725Z,98953.84
2018-03-15T11:48:15.111Z,98929.61
2018-03-15T11:50:42.838Z,98939.09
2018-03-15T11:53:10.185Z,98937.23
2018-03-15T11:55:37.594Z,98933.68
2018-03-15T11:58:04.987Z,98955.91
2018-03-15T12:00:32.399Z,98936.70
2018-03-15T12:02:59.791Z,98942.25
2018-03-15T12:05:27.207Z,98939.01
2018-03-15T12:07:54.608Z,98936.75
2018-03-15T12:10:22.019Z,98935.51
2018-03-15T12:12:49.412Z,98927.31
2018-03-15T12:15:16.889Z,98914.25
2018-03-15T12:17:44.303Z,98907.34
2018-03-15T12:20:11.776Z,98912.05
2018-03-15T12:22:39.174Z,98912.70
2018-03-15T12:25:06.580Z,98909.53
2018-03-15T12:27:33.992Z,98901.73
2018-03-15T12:30:01.404Z,98890.78
2018-03-15T12:32:28.812Z,98888.00
2018-03-15T12:34:56.224Z,98886.68
2018-03-15T12:37:23.615Z,98883.00
2018-03-15T12:39:51.027Z,98874.55
2018-03-15T12:42:18.476Z,98871.06
2018-03-15T12:44:45.900Z,98868.50
2018-03-15T12:47:13.319Z,98860.03
2018-03-15T12:49:40.742Z,98846.70
2018-03-15T12:52:08.147Z,98849.13
2018-03-15T12:54:35.547Z,98832.91
2018-03-15T12:57:02.962Z,98837.08
2018-03-15T12:59:30.347Z,98831.73
2018-03-15T13:01:57.765Z,98820.31
2018-03-15T13:04:25.164Z,98811.50
2018-03-15T13:06:52.583Z,98820.00
2018-03-15T13:09:19.972Z,98805.47
2018-03-15T13:11:47.410Z,98805.66
2018-03-15T13:14:14.834Z,98811.41
2018-03-15T13:16:42.359Z,98813.95
2018-03-15T13:19:09.782Z,98796.43
2018-03-15T13:21:37.156Z,98806.84
2018-03-15T13:24:04.561Z,98806.65
2018-03-15T13:26:31.959Z,98809.82
2018-03-15T13:28:59.375Z,98799.56
2018-03-15T13:31:26.772Z,98807.23
2018-03-15T13:33:54.163Z,98808.81
2018-03-15T13:36:21.580Z,98811.94
2018-03-15T13:38:48.988Z,98802.13
2018-03-15T13:41:16.413Z,98799.56
2018-03-15T13:43:43.845Z,98800.91
2018-03-15T13:46:11.278Z,98811.76
2018-03-15T13:48:38.888Z,98815.10
2018-03-15T13:51:06.302Z,98814.16
2018-03-15T13:53:33.712Z,98811.98
2018-03-15T13:56:01.124Z,98809.22
2018-03-15T13:58:28.525Z,98813.16
2018-03-15T14:00:55.927Z,98820.64
2018-03-15T14:03:23.327Z,98810.99
2018-03-15T14:05:50.744Z,98813.11
2018-03-15T14:08:18.171Z,98806.66
2018-03-15T14:10:45.597Z,98807.19
2018-03-15T14:13:13.031Z,98805.00
2018-03-15T14:15:40.492Z,98796.78
2018-03-15T14:18:07.896Z,98802.66
2018-03-15T14:20:35.295Z,98810.75
2018-03-15T14:23:02.733Z,98805.86
2018-03-15T14:25:30.133Z,98802.28
2018-03-15T14:27:57.534Z,98799.16
2018-03-15T14:30:24.927Z,98789.32
2018-03-15T14:32:52.341Z,98793.83
2018-03-15T14:35:19.740Z,98786.95
2018-03-15T14:37:47.163Z,98793.84
2018-03-15T14:40:14.588Z,98791.50
2018-03-15T14:42:42.012Z,98796.79
2018-03-15T14:45:09.440Z,98801.89
2018-03-15T14:47:36.832Z,98786.95
2018-03-15T14:50:04.263Z,98779.06
2018-03-15T14:52:31.656Z,98790.07
2018-03-15T14:54:59.071Z,98779.64
2018-03-15T14:57:26.466Z,98773.94
2018-03-15T14:59:53.872Z,98772.12
2018-03-15T15:02:21.267Z,98789.47
2018-03-15T15:04:48.675Z,98780.82
2018-03-15T15:07:16.066Z,98773.31
2018-03-15T15:09:43.479Z,98781.80
2018-03-15T15:12:10.880Z,98777.11
2018-03-15T15:14:38.280Z,98786.17
2018-03-15T15:17:05.791Z,98788.13
2018-03-15T15:19:33.196Z,98797.75
2018-03-15T15:22:00.591Z,98783.77
2018-03-15T15:24:27.992Z,98780.22
2018-03-15T15:26:55.388Z,98776.08
2018-03-15T15:29:22.800Z,98769.80
2018-03-15T15:31:50.187Z,98775.72
2018-03-15T15:34:17.744Z,98784.34
2018-03-15T15:36:45.144Z,98788.87
2018-03-15T15:39:12.562Z,98779.39
2018-03-15T15:41:40.268Z,98772.30
2018-03-15T15:44:07.673Z,98770.31
2018-03-15T15:46:35.095Z,98767.16
2018-03-15T15:49:02.561Z,98773.85
2018-03-15T15:51:29.955Z,98769.88
2018-03-15T15:53:57.355Z,98761.16
2018-03-15T15:56:24.891Z,98759.75
2018-03-15T15:58:52.330Z,98769.77
2018-03-15T16:01:19.700Z,98774.30
2018-03-15T16:03:47.213Z,98756.01
2018-03-15T16:06:14.631Z,98780.48
2018-03-15T16:08:42.056Z,98777.17
2018-03-15T16:11:09.478Z,98787.01
2018-03-15T16:13:36.880Z,98784.58
2018-03-15T16:16:04.535Z,98786.75
2018-03-15T16:18:31.940Z,98793.97
2018-03-15T16:20:59.343Z,98806.11
2018-03-15T16:23:26.756Z,98804.91
2018-03-15T16:25:54.172Z,98800.78
2018-03-15T16:28:21.571Z,98791.16
2018-03-15T16:30:48.973Z,98788.96
2018-03-15T16:33:16.398Z,98785.39
2018-03-15T16:35:43.799Z,98798.92
2018-03-15T16:38:11.204Z,98811.91
2018-03-15T16:40:38.598Z,98793.76
2018-03-15T16:43:06.021Z,98788.87
2018-03-15T16:45:33.583Z,98786.48
2018-03-15T16:48:00.979Z,98783.59
2018-03-15T16:50:28.388Z,98781.75
2018-03-15T16:52:55.943Z,98801.61
2018-03-15T16:55:23.348Z,98794.05
2018-03-15T16:57:50.743Z,98790.91
2018-03-15T17:00:18.174Z,98798.14
2018-03-15T17:02:45.594Z,98799.70
2018-03-15T17:05:13.336Z,98798.28
2018-03-15T17:07:40.768Z,98804.62
2018-03-15T17:10:08.167Z,98802.98
2018-03-15T17:12:35.583Z,98803.83
2018-03-15T17:15:02.992Z,98809.89
2018-03-15T17:17:30.395Z,98804.65
2018-03-15T17:19:57.813Z,98792.46
2018-03-15T17:22:25.210Z,98793.58
2018-03-15T17:24:52.766Z,98795.03
2018-03-15T17:27:20.165Z,98796.11
2018-03-15T17:29:47.598Z,98791.55
2018-03-15T17:32:15.054Z,98803.89
2018-03-15T17:34:42.517Z,98794.88
2018-03-15T17:37:09.923Z,98804.90
2018-03-15T17:39:37.468Z,98810.39
2018-03-15T17:42:04.863Z,98823.88
2018-03-15T17:44:32.259Z,98819.36
2018-03-15T17:46:59.780Z,98828.77
2018-03-15T17:49:27.160Z,98820.51
2018-03-15T17:51:54.571Z,98828.14
2018-03-15T17:54:21.971Z,98827.73
2018-03-15T17:56:49.404Z,98823.98
2018-03-15T17:59:16.807Z,98832.39
2018-03-15T18:01:44.247Z,98828.23
2018-03-15T18:04:11.688Z,98831.28
2018-03-15T18:06:39.112Z,98835.22
2018-03-15T18:09:06.520Z,98832.56
2018-03-15T18:11:33.926Z,98844.52
2018-03-15T18:14:01.323Z,98835.83
2018-03-15T18:16:28.735Z,98836.70
2018-03-15T18:18:56.139Z,98830.72
2018-03-15T18:21:23.566Z,98840.59
2018-03-15T18:23:50.968Z,98831.45
2018-03-15T18:26:18.430Z,98837.34
2018-03-15T18:28:45.986Z,98845.66
2018-03-15T18:31:14.338Z,98841.48
2018-03-15T18:33:41.757Z,98845.81
2018-03-15T18:36:09.147Z,98849.38
2018-03-15T18:38:36.559Z,98851.59
2018-03-15T18:41:04.007Z,98863.21
2018-03-15T18:43:31.423Z,98854.11
2018-03-15T18:45:58.807Z,98863.72
2018-03-15T18:48:26.325Z,98875.08
2018-03-15T18:50:53.843Z,98873.89
2018-03-15T18:53:21.264Z,98875.92
2018-03-15T18:55:48.664Z,98886.16
2018-03-15T18:58:16.076Z,98889.32
2018-03-15T19:00:43.488Z,98892.41
2018-03-15T19:03:10.885Z,98893.19
2018-03-15T19:05:38.296Z,98907.00
2018-03-15T19:08:05.834Z,98901.69
2018-03-15T19:10:33.388Z,98900.18
2018-03-15T19:13:00.808Z,98891.80
2018-03-15T19:15:28.276Z,98893.59
2018-03-15T19:17:55.662Z,98898.94
2018-03-15T19:20:23.076Z,98891.28
2018-03-15T19:22:50.491Z,98907.06
2018-03-15T19:25:18.109Z,98913.69
2018-03-15T19:27:45.535Z,98905.00
2018-03-15T19:30:12.952Z,98914.77
2018-03-15T19:32:40.584Z,98905.63
2018-03-15T19:35:08.035Z,98914.92
2018-03-15T19:37:35.443Z,98910.11
2018-03-15T19:40:02.844Z,98905.50
2018-03-15T19:42:30.243Z,98901.14
2018-03-15T19:44:57.647Z,98901.22
2018-03-15T19:47:25.055Z,98889.88
2018-03-15T19:49:52.451Z,98909.11
2018-03-15T19:52:20.015Z,98883.72
2018-03-15T19:54:48.221Z,98895.59
2018-03-15T19:57:15.636Z,98904.04
2018-03-15T19:59:43.085Z,98907.08
2018-03-15T20:02:10.534Z,98905.09
2018-03-15T20:04:37.939Z,98908.84
2018-03-15T20:07:05.807Z,98908.63
2018-03-15T20:09:33.155Z,98910.78
2018-03-15T20:12:00.576Z,98906.68
2018-03-15T20:14:27.960Z,98907.64
2018-03-15T20:16:55.365Z,98908.30
2018-03-15T20:19:22.821Z,98896.72
2018-03-15T20:21:50.184Z,98897.14
2018-03-15T20:24:23.211Z,98905.45
2018-03-15T20:26:50.605Z,98889.43
2018-03-15T20:29:18.172Z,98882.83
2018-03-15T20:31:45.613Z,98890.27
2018-03-15T20:36:46.813Z,98889.53
2018-03-15T20:39:19.926Z,98892.65
2018-03-15T20:41:47.344Z,98892.10
2018-03-15T20:44:14.777Z,98897.09
2018-03-15T20:46:47.817Z,98895.47
2018-03-15T20:49:15.248Z,98895.45
2018-03-15T20:51:42.703Z,98906.00
2018-03-15T20:54:10.483Z,98900.47
2018-03-15T20:56:37.887Z,98907.11
2018-03-15T20:59:05.286Z,98905.20
2018-03-15T21:01:32.707Z,98911.47
2018-03-15T21:04:00.091Z,98917.66
2018-03-15T21:06:27.512Z,98915.06
2018-03-15T21:08:54.925Z,98915.23
2018-03-15T21:11:22.322Z,98903.81
2018-03-15T21:13:49.746Z,98909.09
2018-03-15T21:16:17.166Z,98908.94
2018-03-15T21:18:44.618Z,98902.35
2018-03-15T21:21:12.050Z,98904.52
2018-03-15T21:23:39.461Z,98915.98
2018-03-15T21:26:06.877Z,98914.47
2018-03-15T21:28:34.314Z,98907.97
2018-03-15T21:31:01.717Z,98907.23
2018-03-15T21:33:29.236Z,98906.92
2018-03-15T21:35:56.607Z,98899.26
2018-03-15T21:38:24.008Z,98903.53
2018-03-15T21:40:51.411Z,98901.20
2018-03-15T21:43:18.819Z,98900.94
2018-03-15T21:45:46.267Z,98904.30
2018-03-15T21:48:13.684Z,98894.61
2018-03-15T21:50:41.137Z,98901.39
2018-03-15T21:53:08.540Z,98898.03
2018-03-15T21:55:36.055Z,98905.01
2018-03-15T21:58:03.447Z,98905.61
2018-03-15T22:00:30.849Z,98903.93
2018-03-15T22:02:58.250Z,98907.46
2018-03-15T22:05:25.647Z,98894.76
2018-03-15T22:07:53.056Z,98904.13
2018-03-15T22:10:20.455Z,98892.67
2018-03-15T22:12:47.902Z,98893.38
2018-03-15T22:15:15.316Z,98896.14
2018-03-15T22:17:42.825Z,98896.66
2018-03-15T22:20:10.244Z,98889.30
2018-03-15T22:22:37.639Z,98892.80
2018-03-15T22:25:05.072Z,98891.23
2018-03-15T22:27:32.459Z,98897.04
2018-03-15T22:29:59.873Z,98892.38
2018-03-15T22:32:27.273Z,98899.27
2018-03-15T22:34:54.674Z,98899.58
2018-03-15T22:37:22.085Z,98893.75
2018-03-15T22:39:49.784Z,98891.66
2018-03-15T22:42:17.187Z,98902.45
2018-03-15T22:44:44.593Z,98891.14
2018-03-15T22:47:12.046Z,98900.09
2018-03-15T22:49:39.490Z,98890.95
2018-03-15T22:52:06.895Z,98895.33
2018-03-15T22:54:34.291Z,98893.88
2018-03-15T22:57:01.700Z,98896.90
2018-03-15T22:59:29.095Z,98895.81
2018-03-15T23:01:56.494Z,98893.48
2018-03-15T23:04:23.928Z,98897.28
2018-03-15T23:06:51.333Z,98910.55
2018-03-15T23:09:18.736Z,98897.45
2018-03-15T23:11:46.119Z,98909.37
2018-03-15T23:14:13.571Z,98899.53
2018-03-15T23:16:40.974Z,98903.91
2018-03-15T23:19:08.380Z,98904.37
2018-03-15T23:21:36.859Z,98909.08
2018-03-15T23:24:04.255Z,98911.87
2018-03-15T23:26:31.671Z,98918.80
2018-03-15T23:28:59.063Z,98919.64
2018-03-15T23:31:26.471Z,98917.88
2018-03-15T23:33:53.874Z,98905.94
2018-03-15T23:36:21.511Z,98907.15
2018-03-15T23:38:48.908Z,98921.21
2018-03-15T23:41:16.321Z,98913.13
2018-03-15T23:43:43.724Z,98919.81
2018-03-15T23:46:11.156Z,98927.31
2018-03-15T23:48:38.559Z,98924.78
2018-03-15T23:51:05.972Z,98917.95
2018-03-15T23:53:33.391Z,98928.92
2018-03-15T23:56:00.786Z,98921.03
2018-03-15T23:58:28.195Z,98928.92
